createdAt,value
2018-01-10T00:01:29.965Z,96.93
2018-01-10T00:04:04.917Z,96.87
2018-01-10T00:06:39.390Z,96.80
2018-01-10T00:09:14.986Z,96.69
2018-01-10T00:11:49.976Z,96.60
2018-01-10T00:14:25.460Z,96.50
2018-01-10T00:17:00.329Z,96.41
2018-01-10T00:19:35.101Z,96.30
2018-01-10T00:22:10.048Z,96.18
2018-01-10T00:24:45.348Z,96.16
2018-01-10T00:27:20.273Z,96.25
2018-01-10T00:29:55.025Z,96.29
2018-01-10T00:32:29.882Z,96.49
2018-01-10T00:35:05.421Z,96.40
2018-01-10T00:37:40.417Z,96.35
2018-01-10T00:40:15.589Z,96.25
2018-01-10T00:42:49.760Z,96.32
2018-01-10T00:45:24.969Z,96.34
2018-01-10T00:48:00.185Z,96.24
2018-01-10T00:50:35.060Z,96.04
2018-01-10T00:53:10.408Z,95.92
2018-01-10T00:55:45.201Z,95.96
2018-01-10T00:58:20.465Z,95.95
2018-01-10T01:00:55.678Z,96.03
2018-01-10T01:03:30.318Z,96.10
2018-01-10T01:06:05.085Z,96.04
2018-01-10T01:08:40.415Z,96.04
2018-01-10T01:11:15.601Z,95.97
2018-01-10T01:13:51.188Z,95.92
2018-01-10T01:16:25.588Z,95.88
2018-01-10T01:19:00.143Z,95.87
2018-01-10T01:21:34.541Z,95.83
2018-01-10T01:24:09.745Z,95.77
2018-01-10T01:26:44.424Z,95.65
2018-01-10T01:29:19.525Z,95.61
2018-01-10T01:31:54.162Z,95.62
2018-01-10T01:34:29.437Z,95.69
2018-01-10T01:37:04.285Z,95.70
2018-01-10T01:39:38.909Z,95.88
2018-01-10T01:42:14.388Z,96.11
2018-01-10T01:44:49.185Z,96.32
2018-01-10T01:47:24.140Z,96.51
2018-01-10T01:49:59.286Z,96.76
2018-01-10T01:52:34.579Z,97.03
2018-01-10T01:55:09.840Z,97.22
2018-01-10T01:57:44.536Z,97.50
2018-01-10T02:00:20.116Z,97.67
2018-01-10T02:02:55.319Z,97.91
2018-01-10T02:05:29.700Z,97.96
2018-01-10T02:08:05.163Z,97.87
2018-01-10T02:10:40.304Z,97.72
2018-01-10T02:13:15.803Z,97.61
2018-01-10T02:15:50.665Z,97.63
2018-01-10T02:18:26.040Z,97.67
2018-01-10T02:21:01.260Z,97.76
2018-01-10T02:23:35.694Z,97.71
2018-01-10T02:26:10.336Z,97.42
2018-01-10T02:28:45.337Z,97.26
2018-01-10T02:31:20.611Z,97.35
2018-01-10T02:33:55.492Z,97.39
2018-01-10T02:36:30.692Z,97.36
2018-01-10T02:39:04.807Z,97.26
2018-01-10T02:41:40.352Z,97.35
2018-01-10T02:44:15.873Z,97.32
2018-01-10T02:46:51.307Z,97.36
2018-01-10T02:49:26.659Z,97.40
2018-01-10T02:52:01.865Z,97.31
2018-01-10T02:54:36.526Z,97.23
2018-01-10T02:57:11.861Z,97.29
2018-01-10T02:59:46.515Z,97.48
2018-01-10T03:02:21.420Z,97.67
2018-01-10T03:04:56.629Z,97.83
2018-01-10T03:07:31.884Z,97.63
2018-01-10T03:10:07.454Z,97.50
2018-01-10T03:12:42.467Z,97.35
2018-01-10T03:15:17.588Z,97.14
2018-01-10T03:17:52.407Z,96.97
2018-01-10T03:20:27.890Z,96.93
2018-01-10T03:23:03.131Z,97.12
2018-01-10T03:25:37.713Z,97.08
2018-01-10T03:28:12.868Z,97.03
2018-01-10T03:30:47.769Z,96.96
2018-01-10T03:33:22.935Z,96.84
2018-01-10T03:35:57.439Z,96.74
2018-01-10T03:38:31.928Z,96.68
2018-01-10T03:41:06.803Z,96.62
2018-01-10T03:43:41.903Z,96.53
2018-01-10T03:46:17.484Z,96.51
2018-01-10T03:48:52.606Z,96.38
2018-01-10T03:51:27.919Z,96.38
2018-01-10T03:54:02.526Z,96.48
2018-01-10T03:56:37.344Z,96.54
2018-01-10T03:59:12.883Z,96.68
2018-01-10T04:01:47.748Z,96.89
2018-01-10T04:04:23.053Z,97.03
2018-01-10T04:06:57.907Z,97.18
2018-01-10T04:09:32.611Z,97.29
2018-01-10T04:12:07.584Z,97.22
2018-01-10T04:14:43.580Z,97.24
2018-01-10T04:17:18.852Z,97.24
2018-01-10T04:19:54.051Z,97.15
2018-01-10T04:22:29.528Z,97.02
2018-01-10T04:25:04.702Z,96.87
2018-01-10T04:27:39.814Z,96.79
2018-01-10T04:30:14.689Z,96.56
2018-01-10T04:32:49.696Z,96.40
2018-01-10T04:35:24.924Z,96.43
2018-01-10T04:38:00.034Z,96.61
2018-01-10T04:40:35.155Z,96.99
2018-01-10T04:43:10.255Z,97.09
2018-01-10T04:45:45.829Z,96.85
2018-01-10T04:48:21.103Z,96.89
2018-01-10T04:50:55.812Z,96.95
2018-01-10T04:53:31.200Z,96.94
2018-01-10T04:56:06.072Z,96.85
2018-01-10T04:58:40.950Z,96.67
2018-01-10T05:01:16.120Z,96.48
2018-01-10T05:03:50.858Z,96.47
2018-01-10T05:06:25.979Z,96.58
2018-01-10T05:09:00.594Z,96.88
2018-01-10T05:11:35.291Z,97.02
2018-01-10T05:14:10.204Z,97.20
2018-01-10T05:16:45.110Z,97.24
2018-01-10T05:19:19.951Z,97.26
2018-01-10T05:21:54.820Z,97.07
2018-01-10T05:24:30.092Z,97.08
2018-01-10T05:27:05.185Z,97.23
2018-01-10T05:29:39.862Z,97.20
2018-01-10T05:32:15.263Z,97.17
2018-01-10T05:34:50.150Z,97.15
2018-01-10T05:37:25.411Z,97.04
2018-01-10T05:40:00.966Z,96.91
2018-01-10T05:42:36.243Z,96.88
2018-01-10T05:45:11.191Z,96.95
2018-01-10T05:47:46.624Z,96.92
2018-01-10T05:50:22.195Z,96.77
2018-01-10T05:52:57.147Z,96.63
2018-01-10T05:55:32.303Z,96.49
2018-01-10T05:58:07.363Z,96.25
2018-01-10T06:00:42.888Z,96.14
2018-01-10T06:03:17.275Z,96.05
2018-01-10T06:05:51.975Z,96.06
2018-01-10T06:08:26.648Z,96.03
2018-01-10T06:11:01.278Z,95.91
2018-01-10T06:13:36.472Z,95.92
2018-01-10T06:16:11.558Z,95.87
2018-01-10T06:18:46.060Z,95.73
2018-01-10T06:21:21.144Z,95.60
2018-01-10T06:23:56.181Z,95.56
2018-01-10T06:26:31.387Z,95.44
2018-01-10T06:29:06.660Z,95.41
2018-01-10T06:31:41.404Z,95.46
2018-01-10T06:34:16.422Z,95.55
2018-01-10T06:36:51.128Z,95.67
2018-01-10T06:39:26.444Z,95.76
2018-01-10T06:42:02.075Z,95.98
2018-01-10T06:44:36.561Z,96.04
2018-01-10T06:47:13.123Z,96.01
2018-01-10T06:49:48.293Z,96.00
2018-01-10T06:52:23.823Z,96.08
2018-01-10T06:54:59.175Z,96.02
2018-01-10T06:57:34.155Z,96.06
2018-01-10T07:00:08.396Z,96.31
2018-01-10T07:02:43.098Z,96.28
2018-01-10T07:05:18.652Z,96.29
2018-01-10T07:07:53.422Z,96.30
2018-01-10T07:10:28.131Z,96.36
2018-01-10T07:13:03.252Z,96.39
2018-01-10T07:15:37.628Z,96.28
2018-01-10T07:18:13.471Z,96.08
2018-01-10T07:20:48.276Z,95.74
2018-01-10T07:23:23.515Z,95.74
2018-01-10T07:25:57.892Z,95.77
2018-01-10T07:28:32.476Z,95.97
2018-01-10T07:31:07.419Z,96.10
2018-01-10T07:33:42.319Z,95.95
2018-01-10T07:36:17.595Z,95.95
2018-01-10T07:38:52.265Z,96.04
2018-01-10T07:41:27.730Z,96.13
2018-01-10T07:44:02.612Z,96.17
2018-01-10T07:46:37.503Z,96.15
2018-01-10T07:49:13.700Z,96.04
2018-01-10T07:51:48.242Z,95.75
2018-01-10T07:54:23.290Z,95.68
2018-01-10T07:56:58.590Z,95.63
2018-01-10T07:59:34.207Z,95.85
2018-01-10T08:02:09.481Z,96.02
2018-01-10T08:04:44.444Z,96.19
2018-01-10T08:07:19.628Z,96.27
2018-01-10T08:09:54.375Z,96.60
2018-01-10T08:12:29.362Z,96.85
2018-01-10T08:15:03.978Z,96.96
2018-01-10T08:17:38.752Z,96.87
2018-01-10T08:20:13.692Z,96.72
2018-01-10T08:22:48.564Z,96.51
2018-01-10T08:25:23.843Z,96.45
2018-01-10T08:27:59.223Z,96.46
2018-01-10T08:30:33.707Z,96.43
2018-01-10T08:33:08.711Z,96.39
2018-01-10T08:35:43.335Z,96.55
2018-01-10T08:38:18.817Z,96.48
2018-01-10T08:40:54.047Z,96.53
2018-01-10T08:43:29.299Z,96.55
2018-01-10T08:46:04.065Z,96.42
2018-01-10T08:48:38.459Z,96.41
2018-01-10T08:51:13.772Z,96.35
2018-01-10T08:53:48.718Z,96.23
2018-01-10T08:56:23.756Z,96.20
2018-01-10T08:58:58.739Z,96.06
2018-01-10T09:01:33.520Z,95.93
2018-01-10T09:04:08.525Z,95.74
2018-01-10T09:06:42.994Z,95.61
2018-01-10T09:09:17.325Z,95.48
2018-01-10T09:11:52.322Z,95.38
2018-01-10T09:14:27.593Z,95.33
2018-01-10T09:17:02.806Z,95.24
2018-01-10T09:19:37.426Z,95.10
2018-01-10T09:22:13.600Z,95.02
2018-01-10T09:24:48.307Z,95.05
2018-01-10T09:27:23.783Z,95.18
2018-01-10T09:29:58.475Z,95.16
2018-01-10T09:32:33.474Z,95.16
2018-01-10T09:35:07.524Z,95.24
2018-01-10T09:37:42.558Z,95.36
2018-01-10T09:40:17.860Z,95.35
2018-01-10T09:42:52.843Z,95.45
2018-01-10T09:45:27.865Z,95.57
2018-01-10T09:48:02.952Z,95.50
2018-01-10T09:50:37.611Z,95.34
2018-01-10T09:53:13.555Z,95.35
2018-01-10T09:55:48.534Z,95.28
2018-01-10T09:58:23.228Z,95.40
2018-01-10T10:00:58.749Z,95.50
2018-01-10T10:03:33.319Z,95.53
2018-01-10T10:06:08.984Z,95.50
2018-01-10T10:08:44.432Z,95.57
2018-01-10T10:11:19.876Z,95.62
2018-01-10T10:13:54.976Z,95.64
2018-01-10T10:16:29.638Z,95.58
2018-01-10T10:19:04.658Z,95.61
2018-01-10T10:21:39.830Z,95.56
2018-01-10T10:24:14.912Z,95.48
2018-01-10T10:26:49.989Z,95.25
2018-01-10T10:29:25.172Z,94.92
2018-01-10T10:32:00.348Z,94.79
2018-01-10T10:34:35.839Z,94.81
2018-01-10T10:37:11.264Z,94.63
2018-01-10T10:39:46.684Z,94.57
2018-01-10T10:42:21.931Z,94.51
2018-01-10T10:44:56.931Z,94.41
2018-01-10T10:47:32.612Z,94.21
2018-01-10T10:50:07.983Z,94.07
2018-01-10T10:52:43.248Z,94.00
2018-01-10T10:55:18.736Z,93.73
2018-01-10T10:57:53.223Z,93.59
2018-01-10T11:00:28.031Z,93.42
2018-01-10T11:03:02.803Z,93.30
2018-01-10T11:05:37.880Z,93.03
2018-01-10T11:08:14.032Z,92.90
2018-01-10T11:10:49.115Z,92.89
2018-01-10T11:13:24.102Z,92.91
2018-01-10T11:15:58.706Z,92.70
2018-01-10T11:18:33.008Z,92.44
2018-01-10T11:21:07.915Z,92.21
2018-01-10T11:23:42.982Z,92.22
2018-01-10T11:26:17.792Z,92.09
2018-01-10T11:28:52.912Z,92.10
2018-01-10T11:31:28.117Z,92.01
2018-01-10T11:34:03.075Z,92.01
2018-01-10T11:36:38.285Z,91.78
2018-01-10T11:39:12.909Z,91.59
2018-01-10T11:41:47.858Z,91.44
2018-01-10T11:44:23.128Z,91.24
2018-01-10T11:46:57.934Z,91.26
2018-01-10T11:49:32.313Z,90.67
2018-01-10T11:52:07.635Z,90.12
2018-01-10T11:54:43.133Z,89.33
2018-01-10T11:57:18.047Z,87.72
2018-01-10T11:59:53.052Z,87.50
2018-01-10T12:02:28.237Z,87.13
2018-01-10T12:05:03.340Z,86.84
2018-01-10T12:07:38.000Z,86.58
2018-01-10T12:10:14.200Z,84.90
2018-01-10T12:12:49.033Z,84.57
2018-01-10T12:15:24.029Z,82.49
2018-01-10T12:17:58.887Z,81.12
2018-01-10T12:20:33.964Z,79.37
2018-01-10T12:23:08.976Z,79.72
2018-01-10T12:25:43.923Z,78.14
2018-01-10T12:28:19.339Z,77.85
2018-01-10T12:30:54.419Z,77.88
2018-01-10T12:33:29.670Z,77.75
2018-01-10T12:36:04.079Z,78.82
2018-01-10T12:38:39.155Z,79.01
2018-01-10T12:41:14.510Z,79.50
2018-01-10T12:43:49.499Z,80.55
2018-01-10T12:46:23.510Z,81.47
2018-01-10T12:48:58.083Z,82.29
2018-01-10T12:51:33.352Z,82.76
2018-01-10T12:54:08.516Z,82.91
2018-01-10T12:56:44.149Z,82.45
2018-01-10T12:59:19.275Z,81.24
2018-01-10T13:01:53.951Z,80.64
2018-01-10T13:04:28.438Z,80.74
2018-01-10T13:07:04.044Z,80.77
2018-01-10T13:09:39.158Z,80.79
2018-01-10T13:12:14.404Z,81.06
2018-01-10T13:14:49.389Z,80.34
2018-01-10T13:17:24.660Z,79.56
2018-01-10T13:20:00.096Z,78.44
2018-01-10T13:22:35.087Z,78.48
2018-01-10T13:25:10.226Z,79.07
2018-01-10T13:27:44.651Z,79.30
2018-01-10T13:30:20.008Z,79.25
2018-01-10T13:32:55.092Z,79.90
2018-01-10T13:35:30.607Z,80.39
2018-01-10T13:38:05.103Z,80.92
2018-01-10T13:40:40.386Z,81.34
2018-01-10T13:43:15.856Z,81.80
2018-01-10T13:45:51.208Z,82.04
2018-01-10T13:48:26.471Z,82.00
2018-01-10T13:51:01.427Z,82.00
2018-01-10T13:53:36.635Z,82.41
2018-01-10T13:56:11.639Z,82.74
2018-01-10T13:58:46.284Z,82.68
2018-01-10T14:01:21.727Z,82.73
2018-01-10T14:03:56.795Z,82.72
2018-01-10T14:06:32.098Z,82.81
2018-01-10T14:09:07.268Z,82.93
2018-01-10T14:11:42.154Z,82.93
2018-01-10T14:14:17.500Z,82.99
2018-01-10T14:16:53.065Z,82.90
2018-01-10T14:19:27.722Z,82.79
2018-01-10T14:22:03.323Z,82.76
2018-01-10T14:24:38.318Z,82.92
2018-01-10T14:27:13.247Z,83.07
2018-01-10T14:29:48.268Z,83.27
2018-01-10T14:32:23.780Z,83.33
2018-01-10T14:34:58.773Z,83.23
2018-01-10T14:37:33.551Z,83.32
2018-01-10T14:40:08.691Z,83.51
2018-01-10T14:42:43.982Z,83.70
2018-01-10T14:45:18.584Z,83.98
2018-01-10T14:47:53.615Z,84.05
2018-01-10T14:50:28.604Z,84.12
2018-01-10T14:53:03.697Z,84.02
2018-01-10T14:55:38.376Z,84.10
2018-01-10T14:58:12.563Z,84.37
2018-01-10T15:00:47.096Z,84.54
2018-01-10T15:03:22.383Z,84.56
2018-01-10T15:05:57.416Z,84.56
2018-01-10T15:08:31.811Z,84.60
2018-01-10T15:11:06.391Z,84.68
2018-01-10T15:13:41.686Z,84.77
2018-01-10T15:16:16.614Z,84.72
2018-01-10T15:18:51.712Z,84.70
2018-01-10T15:21:26.501Z,84.75
2018-01-10T15:24:01.751Z,84.83
2018-01-10T15:26:36.673Z,84.81
2018-01-10T15:29:12.383Z,84.80
2018-01-10T15:31:47.446Z,84.78
2018-01-10T15:34:22.646Z,84.86
2018-01-10T15:36:57.940Z,84.97
2018-01-10T15:39:32.398Z,85.13
2018-01-10T15:42:06.768Z,85.31
2018-01-10T15:44:42.354Z,85.59
2018-01-10T15:47:17.036Z,85.82
2018-01-10T15:49:52.203Z,86.07
2018-01-10T15:52:27.691Z,86.34
2018-01-10T15:55:02.205Z,86.49
2018-01-10T15:57:36.673Z,86.43
2018-01-10T16:00:11.539Z,86.47
2018-01-10T16:02:46.848Z,86.69
2018-01-10T16:05:21.743Z,87.08
2018-01-10T16:07:56.932Z,87.46
2018-01-10T16:10:32.684Z,87.48
2018-01-10T16:13:07.162Z,87.57
2018-01-10T16:15:41.780Z,87.60
2018-01-10T16:18:17.752Z,87.68
2018-01-10T16:20:52.584Z,87.85
2018-01-10T16:23:27.864Z,88.15
2018-01-10T16:26:02.927Z,88.53
2018-01-10T16:28:38.008Z,88.84
2018-01-10T16:31:12.756Z,89.09
2018-01-10T16:33:48.005Z,89.29
2018-01-10T16:36:22.912Z,89.30
2018-01-10T16:38:57.742Z,89.20
2018-01-10T16:41:32.597Z,89.21
2018-01-10T16:44:07.105Z,89.23
2018-01-10T16:46:41.587Z,89.04
2018-01-10T16:49:16.359Z,88.99
2018-01-10T16:51:51.336Z,89.02
2018-01-10T16:54:26.957Z,89.06
2018-01-10T16:57:01.828Z,89.26
2018-01-10T16:59:36.719Z,89.32
2018-01-10T17:02:11.216Z,89.32
2018-01-10T17:04:45.828Z,89.47
2018-01-10T17:07:20.911Z,89.67
2018-01-10T17:09:56.412Z,89.80
2018-01-10T17:12:32.172Z,89.79
2018-01-10T17:15:07.189Z,89.85
2018-01-10T17:17:42.113Z,89.87
2018-01-10T17:20:16.969Z,89.66
2018-01-10T17:22:51.748Z,89.58
2018-01-10T17:25:26.175Z,89.51
2018-01-10T17:28:01.406Z,89.56
2018-01-10T17:30:35.862Z,89.57
2018-01-10T17:33:10.682Z,89.53
2018-01-10T17:35:45.687Z,89.41
2018-01-10T17:38:21.040Z,89.29
2018-01-10T17:40:56.595Z,89.14
2018-01-10T17:43:31.862Z,89.05
2018-01-10T17:46:06.256Z,88.85
2018-01-10T17:48:41.958Z,88.77
2018-01-10T17:51:16.935Z,88.79
2018-01-10T17:53:52.244Z,88.91
2018-01-10T17:56:27.593Z,88.95
2018-01-10T17:59:01.959Z,89.08
2018-01-10T18:01:37.267Z,88.88
2018-01-10T18:04:12.486Z,88.71
2018-01-10T18:06:47.889Z,88.53
2018-01-10T18:09:23.221Z,88.34
2018-01-10T18:11:57.887Z,88.23
2018-01-10T18:14:32.690Z,88.11
2018-01-10T18:17:08.239Z,88.10
2018-01-10T18:19:42.830Z,88.04
2018-01-10T18:22:18.619Z,88.04
2018-01-10T18:24:53.896Z,88.21
2018-01-10T18:27:28.653Z,88.50
2018-01-10T18:30:03.257Z,88.51
2018-01-10T18:32:38.967Z,88.50
2018-01-10T18:35:15.239Z,88.31
2018-01-10T18:37:49.867Z,88.08
2018-01-10T18:40:25.222Z,88.04
2018-01-10T18:43:00.335Z,87.72
2018-01-10T18:45:35.203Z,87.69
2018-01-10T18:48:10.168Z,87.65
2018-01-10T18:50:45.363Z,87.56
2018-01-10T18:53:21.004Z,87.60
2018-01-10T18:55:55.882Z,87.56
2018-01-10T18:58:31.424Z,87.45
2018-01-10T19:01:06.837Z,87.51
2018-01-10T19:03:41.891Z,87.69
2018-01-10T19:06:17.320Z,87.82
2018-01-10T19:08:51.996Z,87.71
2018-01-10T19:11:26.944Z,87.72
2018-01-10T19:14:01.036Z,87.98
2018-01-10T19:16:35.461Z,88.06
2018-01-10T19:19:10.160Z,88.10
2018-01-10T19:21:45.174Z,88.24
2018-01-10T19:24:20.077Z,88.13
2018-01-10T19:26:55.030Z,87.89
2018-01-10T19:29:30.072Z,87.87
2018-01-10T19:32:05.375Z,87.81
2018-01-10T19:34:39.970Z,87.82
2018-01-10T19:37:15.362Z,87.59
2018-01-10T19:39:50.344Z,87.57
2018-01-10T19:42:25.922Z,87.55
2018-01-10T19:45:01.234Z,87.71
2018-01-10T19:47:36.169Z,87.66
2018-01-10T19:50:11.060Z,87.51
2018-01-10T19:52:46.320Z,87.52
2018-01-10T19:55:21.806Z,87.75
2018-01-10T19:57:56.879Z,87.97
2018-01-10T20:00:31.463Z,88.14
2018-01-10T20:03:06.196Z,87.93
2018-01-10T20:05:41.454Z,87.83
2018-01-10T20:08:16.343Z,87.80
2018-01-10T20:10:51.319Z,87.64
2018-01-10T20:13:26.672Z,87.47
2018-01-10T20:16:01.669Z,87.38
2018-01-10T20:18:36.594Z,87.26
2018-01-10T20:21:11.385Z,87.20
2018-01-10T20:23:46.676Z,87.06
2018-01-10T20:26:22.052Z,86.95
2018-01-10T20:28:56.546Z,86.76
2018-01-10T20:31:31.499Z,86.64
2018-01-10T20:34:07.463Z,86.59
2018-01-10T20:36:42.230Z,86.56
2018-01-10T20:39:16.750Z,86.50
2018-01-10T20:41:52.216Z,86.54
2018-01-10T20:44:27.208Z,86.76
2018-01-10T20:47:02.295Z,86.86
2018-01-10T20:49:37.571Z,86.88
2018-01-10T20:52:12.488Z,86.94
2018-01-10T20:54:47.486Z,86.84
2018-01-10T20:57:22.254Z,87.01
2018-01-10T20:59:57.262Z,87.14
2018-01-10T21:02:32.234Z,87.18
2018-01-10T21:05:07.376Z,87.21
2018-01-10T21:07:42.682Z,87.27
2018-01-10T21:10:18.534Z,87.25
2018-01-10T21:12:53.611Z,87.05
2018-01-10T21:15:28.758Z,86.91
2018-01-10T21:18:03.268Z,86.87
2018-01-10T21:20:38.611Z,86.81
2018-01-10T21:23:15.626Z,86.86
2018-01-10T21:25:50.423Z,86.88
2018-01-10T21:28:25.425Z,87.08
2018-01-10T21:31:00.435Z,87.24
2018-01-10T21:33:35.703Z,87.42
2018-01-10T21:36:10.559Z,87.58
2018-01-10T21:38:45.720Z,87.69
2018-01-10T21:41:20.579Z,87.71
2018-01-10T21:43:55.626Z,87.74
2018-01-10T21:46:30.592Z,87.83
2018-01-10T21:49:05.571Z,87.92
2018-01-10T21:51:40.823Z,88.10
2018-01-10T21:54:15.775Z,88.54
2018-01-10T21:56:50.663Z,88.97
2018-01-10T21:59:25.411Z,89.07
2018-01-10T22:02:01.148Z,89.16
2018-01-10T22:04:36.406Z,89.11
2018-01-10T22:07:11.079Z,88.84
2018-01-10T22:09:46.081Z,88.66
2018-01-10T22:12:20.926Z,88.65
2018-01-10T22:14:56.034Z,88.73
2018-01-10T22:17:30.482Z,88.85
2018-01-10T22:20:05.350Z,88.87
2018-01-10T22:22:40.003Z,88.88
2018-01-10T22:25:15.456Z,89.07
2018-01-10T22:27:50.644Z,89.35
2018-01-10T22:30:25.486Z,89.65
2018-01-10T22:33:00.937Z,90.07
2018-01-10T22:35:36.043Z,90.45
2018-01-10T22:38:11.332Z,90.60
2018-01-10T22:40:46.508Z,90.85
2018-01-10T22:43:21.162Z,91.11
2018-01-10T22:45:55.645Z,91.26
2018-01-10T22:48:30.406Z,91.33
2018-01-10T22:51:05.115Z,91.42
2018-01-10T22:53:40.083Z,91.45
2018-01-10T22:56:15.583Z,91.32
2018-01-10T22:58:50.471Z,91.36
2018-01-10T23:01:26.267Z,91.37
2018-01-10T23:04:00.647Z,91.30
2018-01-10T23:06:36.099Z,91.20
2018-01-10T23:09:11.776Z,91.28
2018-01-10T23:11:46.599Z,91.43
2018-01-10T23:14:22.395Z,91.61
2018-01-10T23:16:57.520Z,91.77
2018-01-10T23:19:33.098Z,92.05
2018-01-10T23:22:07.904Z,92.25
2018-01-10T23:24:42.511Z,92.49
2018-01-10T23:27:17.323Z,92.64
2018-01-10T23:29:52.240Z,92.63
2018-01-10T23:32:26.651Z,92.62
2018-01-10T23:35:01.728Z,92.59
2018-01-10T23:37:36.622Z,92.52
2018-01-10T23:40:11.498Z,92.47
2018-01-10T23:42:46.322Z,92.35
2018-01-10T23:45:21.211Z,92.21
2018-01-10T23:47:56.288Z,91.94
2018-01-10T23:50:31.871Z,91.66
2018-01-10T23:53:06.480Z,91.50
2018-01-10T23:55:41.688Z,91.40
2018-01-10T23:58:16.802Z,91.43
